Time;durP1;ratioP1;P1;durP2;ratioP2;P2;SDS_P1;SDS_P2;PMS_P1;PMS_P2;Temp;Humidity;BMP_temperature;BMP_pressure;BME280_temperature;BME280_humidity;BME280_pressure;Samples;Min_cycle;Max_cycle;Signal;HPM_P1;HPM_P2
2022/10/29 00:02:19;;;;;;;6.63;4.00;;;14.00;99.90;;;;;;7377974;19;20430;-75
2022/10/29 00:04:44;;;;;;;7.00;4.07;;;14.00;99.90;;;;;;7378559;19;20384;-75
2022/10/29 00:07:10;;;;;;;9.67;4.40;;;14.00;99.90;;;;;;7377244;19;20305;-75
2022/10/29 00:09:36;;;;;;;6.50;4.20;;;14.00;99.90;;;;;;7378178;19;20703;-75
2022/10/29 00:12:01;;;;;;;5.33;3.90;;;14.00;99.90;;;;;;7376364;19;20333;-75
2022/10/29 00:14:27;;;;;;;9.10;4.17;;;14.10;99.90;;;;;;7368016;19;20373;-75
2022/10/29 00:16:52;;;;;;;6.97;4.00;;;14.10;99.90;;;;;;7374776;19;20321;-75
2022/10/29 00:19:18;;;;;;;5.93;3.87;;;14.20;99.90;;;;;;7376008;19;20340;-75
2022/10/29 00:21:43;;;;;;;7.53;4.03;;;14.10;99.90;;;;;;7378808;19;20331;-77
2022/10/29 00:24:09;;;;;;;4.53;3.63;;;14.10;99.90;;;;;;7378038;19;20329;-75
2022/10/29 00:26:35;;;;;;;7.13;3.90;;;14.10;99.90;;;;;;7376547;19;20345;-75
2022/10/29 00:29:00;;;;;;;5.60;4.07;;;14.10;99.90;;;;;;7377143;19;20344;-76
2022/10/29 00:31:26;;;;;;;5.83;3.47;;;14.10;99.90;;;;;;7382173;19;20328;-76
2022/10/29 00:33:54;;;;;;;6.10;4.17;;;14.20;99.90;;;;;;7379438;19;20320;-75
2022/10/29 00:36:22;;;;;;;7.25;4.13;;;14.20;99.90;;;;;;7378982;19;20308;-76
2022/10/29 00:38:48;;;;;;;4.57;3.35;;;14.10;99.90;;;;;;7380898;19;20335;-76
2022/10/29 00:41:18;;;;;;;4.63;3.70;;;14.10;99.90;;;;;;7381637;19;20300;-75
2022/10/29 00:43:47;;;;;;;4.13;3.38;;;14.10;99.90;;;;;;7379512;19;20603;-76
2022/10/29 00:46:30;;;;;;;3.65;3.30;;;14.00;99.90;;;;;;7381080;19;20317;-76
2022/10/29 00:48:55;;;;;;;4.78;3.17;;;14.10;99.90;;;;;;7278844;19;2019136;-76
2022/10/29 00:51:21;;;;;;;4.73;3.60;;;14.00;99.90;;;;;;7380354;19;20327;-76
2022/10/29 00:53:55;;;;;;;8.60;4.00;;;14.00;99.90;;;;;;7380316;19;20692;-77
2022/10/29 00:56:21;;;;;;;7.20;3.40;;;14.00;99.90;;;;;;7276973;19;2020301;-75
2022/10/29 00:58:46;;;;;;;6.85;3.53;;;13.90;99.90;;;;;;7380768;19;20342;-76
2022/10/29 01:01:12;;;;;;;4.20;2.80;;;13.90;99.90;;;;;;7381097;19;20324;-76
2022/10/29 01:03:38;;;;;;;4.78;3.60;;;13.90;99.90;;;;;;7380733;19;20337;-75
2022/10/29 01:06:04;;;;;;;5.33;3.77;;;13.80;99.90;;;;;;7380369;19;20312;-75
2022/10/29 01:08:29;;;;;;;5.85;3.90;;;13.70;99.90;;;;;;7374809;19;20375;-75
2022/10/29 01:10:58;;;;;;;4.30;3.30;;;13.70;99.90;;;;;;7374567;19;20316;-75
2022/10/29 01:13:36;;;;;;;5.10;3.50;;;13.70;99.90;;;;;;7373119;19;20308;-75
2022/10/29 01:16:10;;;;;;;3.90;3.47;;;13.70;99.90;;;;;;7375731;19;20336;-75
2022/10/29 01:18:42;;;;;;;5.85;3.67;;;13.70;99.90;;;;;;7373249;19;20352;-75
2022/10/29 01:21:39;;;;;;;4.30;3.40;;;13.70;99.90;;;;;;7373132;19;21744;-75
2022/10/29 01:24:25;;;;;;;4.85;3.55;;;13.60;99.90;;;;;;7270914;19;2004759;-75
2022/10/29 01:27:09;;;;;;;3.80;3.30;;;13.70;99.90;;;;;;7271500;19;2020008;-75
2022/10/29 01:29:50;;;;;;;6.20;3.42;;;13.60;99.90;;;;;;7375394;19;20866;-75
2022/10/29 01:32:25;;;;;;;6.20;3.20;;;13.70;99.90;;;;;;7372851;19;20325;-75
2022/10/29 01:34:59;;;;;;;5.18;3.17;;;13.60;99.90;;;;;;7272132;19;2004446;-75
2022/10/29 01:37:46;;;;;;;3.42;3.13;;;13.60;99.90;;;;;;7373612;19;20340;-77
2022/10/29 01:40:17;;;;;;;5.17;3.50;;;13.60;99.90;;;;;;7376263;19;20305;-75
2022/10/29 01:42:49;;;;;;;6.63;3.65;;;13.50;99.90;;;;;;7373571;19;20831;-76
2022/10/29 01:45:22;;;;;;;6.13;3.80;;;13.40;99.90;;;;;;7373750;19;20328;-78
2022/10/29 01:48:06;;;;;;;3.47;2.95;;;13.40;99.90;;;;;;7283125;19;2017035;-75
2022/10/29 01:50:31;;;;;;;4.90;3.75;;;13.40;99.90;;;;;;7389608;19;20396;-76
2022/10/29 01:52:57;;;;;;;5.07;3.23;;;13.40;99.90;;;;;;7388602;19;20471;-75
2022/10/29 01:55:29;;;;;;;3.53;3.15;;;13.40;99.90;;;;;;7386893;19;20346;-75
2022/10/29 01:57:55;;;;;;;4.28;3.28;;;13.40;99.90;;;;;;7387113;19;20324;-75
2022/10/29 02:00:20;;;;;;;4.53;3.00;;;13.40;99.90;;;;;;7386409;19;20326;-75
2022/10/29 02:02:53;;;;;;;4.25;2.90;;;13.40;99.90;;;;;;7385357;19;20787;-75
2022/10/29 02:05:26;;;;;;;8.63;3.42;;;13.30;99.90;;;;;;7284399;19;2004432;-76
2022/10/29 02:08:13;;;;;;;3.67;3.10;;;13.30;99.90;;;;;;7391305;19;20897;-77
2022/10/29 02:11:00;;;;;;;3.58;3.25;;;13.30;99.90;;;;;;7392634;19;20316;-76
2022/10/29 02:13:36;;;;;;;4.78;3.05;;;13.30;99.90;;;;;;7287532;19;2004394;-76
2022/10/29 02:16:02;;;;;;;3.65;2.70;;;13.20;99.90;;;;;;7392435;19;20328;-75
2022/10/29 02:18:27;;;;;;;3.40;2.63;;;13.20;99.90;;;;;;7397995;19;20843;-76
2022/10/29 02:20:53;;;;;;;2.90;2.60;;;13.20;99.90;;;;;;7397569;19;20324;-76
2022/10/29 02:23:18;;;;;;;5.37;3.30;;;13.10;99.90;;;;;;7393325;19;20633;-76
2022/10/29 02:25:44;;;;;;;5.40;3.27;;;13.10;99.90;;;;;;7393110;19;20305;-77
2022/10/29 02:28:09;;;;;;;3.00;2.70;;;13.10;99.90;;;;;;7390623;19;21084;-76
2022/10/29 02:30:35;;;;;;;4.33;3.40;;;13.00;99.90;;;;;;7389959;19;20360;-76
2022/10/29 02:33:00;;;;;;;4.50;3.40;;;13.00;99.90;;;;;;7388114;19;20340;-76
2022/10/29 02:35:26;;;;;;;4.28;3.35;;;13.00;99.90;;;;;;7390299;19;20313;-76
2022/10/29 02:37:52;;;;;;;4.10;3.10;;;12.90;99.90;;;;;;7390400;19;20321;-76
2022/10/29 02:40:17;;;;;;;4.93;2.90;;;12.90;99.90;;;;;;7390993;19;20346;-76
2022/10/29 02:42:43;;;;;;;4.25;2.80;;;13.00;99.90;;;;;;7390657;19;20327;-76
2022/10/29 02:45:09;;;;;;;2.93;2.67;;;12.90;99.90;;;;;;7391093;19;20678;-75
2022/10/29 02:47:34;;;;;;;3.30;2.47;;;12.90;99.90;;;;;;7392223;19;20316;-76
2022/10/29 02:50:00;;;;;;;3.30;2.70;;;13.00;99.90;;;;;;7393350;19;20308;-76
2022/10/29 02:52:25;;;;;;;2.93;2.43;;;12.90;99.90;;;;;;7390933;19;20329;-76
2022/10/29 02:54:51;;;;;;;2.78;2.47;;;13.00;99.90;;;;;;7389648;19;20997;-77
2022/10/29 02:57:16;;;;;;;4.93;2.70;;;13.00;99.90;;;;;;7390718;19;20325;-75
2022/10/29 02:59:42;;;;;;;3.70;3.27;;;13.00;99.90;;;;;;7381859;19;20309;-76
2022/10/29 03:02:07;;;;;;;4.53;3.50;;;12.90;99.90;;;;;;7382881;19;20341;-78
2022/10/29 03:04:33;;;;;;;4.40;2.60;;;12.90;99.90;;;;;;7382781;19;20713;-76
2022/10/29 03:06:59;;;;;;;3.17;2.70;;;12.90;99.90;;;;;;7384720;19;20316;-76
2022/10/29 03:09:24;;;;;;;3.97;2.70;;;12.90;99.90;;;;;;7381209;19;20830;-76
2022/10/29 03:11:50;;;;;;;4.47;2.73;;;12.80;99.90;;;;;;7383266;19;20300;-76
2022/10/29 03:14:16;;;;;;;3.88;3.13;;;12.80;99.90;;;;;;7382387;19;20316;-79
2022/10/29 03:16:41;;;;;;;4.33;3.00;;;12.80;99.90;;;;;;7381113;19;20637;-76
2022/10/29 03:19:07;;;;;;;3.90;3.07;;;12.80;99.90;;;;;;7382485;19;20328;-76
2022/10/29 03:21:32;;;;;;;4.20;3.00;;;12.80;99.90;;;;;;7383300;19;20337;-76
2022/10/29 03:23:58;;;;;;;4.83;3.00;;;12.80;99.90;;;;;;7380711;19;20313;-79
2022/10/29 03:26:24;;;;;;;5.55;2.88;;;12.80;99.90;;;;;;7381795;19;20316;-76
2022/10/29 03:28:49;;;;;;;4.78;3.00;;;12.90;99.90;;;;;;7384390;19;20324;-76
2022/10/29 03:31:15;;;;;;;3.20;2.90;;;12.90;99.90;;;;;;7383395;19;20399;-77
2022/10/29 03:33:40;;;;;;;3.72;2.92;;;12.90;99.90;;;;;;7383402;19;20389;-77
2022/10/29 03:36:09;;;;;;;2.67;2.38;;;12.90;99.90;;;;;;7383731;19;20323;-75
2022/10/29 03:38:34;;;;;;;3.38;2.75;;;13.00;99.90;;;;;;7382665;19;20337;-77
2022/10/29 03:41:00;;;;;;;3.70;2.93;;;13.00;99.90;;;;;;7385384;19;20449;-76
2022/10/29 03:43:25;;;;;;;3.05;2.65;;;13.00;99.90;;;;;;7381210;19;20337;-76
2022/10/29 03:45:55;;;;;;;2.40;2.20;;;13.00;99.90;;;;;;7382042;19;20309;-76
2022/10/29 03:48:21;;;;;;;3.03;2.20;;;13.00;99.90;;;;;;7379842;19;20329;-76
2022/10/29 03:50:57;;;;;;;2.58;2.13;;;12.90;99.90;;;;;;7382608;19;20312;-76
2022/10/29 03:53:23;;;;;;;2.85;2.25;;;13.00;99.90;;;;;;7277774;19;2004182;-76
2022/10/29 03:55:52;;;;;;;2.90;2.10;;;13.00;99.90;;;;;;7381831;19;20407;-75
2022/10/29 03:58:18;;;;;;;2.38;2.17;;;13.00;99.90;;;;;;7381685;19;20321;-75
2022/10/29 04:00:51;;;;;;;2.43;2.23;;;13.00;99.90;;;;;;7381671;19;21260;-76
2022/10/29 04:03:17;;;;;;;2.35;2.10;;;13.10;99.90;;;;;;7380737;19;20736;-76
2022/10/29 04:05:42;;;;;;;3.83;2.60;;;13.00;99.90;;;;;;7382877;19;20396;-76
2022/10/29 04:08:08;;;;;;;2.33;2.10;;;13.00;99.90;;;;;;7381915;19;20323;-76
2022/10/29 04:10:33;;;;;;;4.47;2.80;;;13.00;99.90;;;;;;7377414;19;20460;-76
2022/10/29 04:12:59;;;;;;;3.40;2.50;;;13.00;99.90;;;;;;7380714;19;21154;-76
2022/10/29 04:15:24;;;;;;;3.10;2.40;;;12.90;99.90;;;;;;7378543;19;20365;-76
2022/10/29 04:17:50;;;;;;;3.90;2.77;;;12.90;99.90;;;;;;7379121;19;20332;-76
2022/10/29 04:20:16;;;;;;;3.00;2.60;;;12.80;99.90;;;;;;7381308;19;21249;-76
2022/10/29 04:22:42;;;;;;;2.87;2.57;;;12.90;99.90;;;;;;7378229;19;20409;-76
2022/10/29 04:25:08;;;;;;;2.87;2.63;;;12.80;99.90;;;;;;7379127;19;20348;-76
2022/10/29 04:27:33;;;;;;;3.53;2.70;;;12.80;99.90;;;;;;7377343;19;20348;-77
2022/10/29 04:29:59;;;;;;;3.35;2.47;;;12.80;99.90;;;;;;7379742;19;20430;-76
2022/10/29 04:32:24;;;;;;;4.80;2.87;;;12.80;99.90;;;;;;7378501;19;20312;-78
2022/10/29 04:34:50;;;;;;;4.83;2.80;;;12.80;99.90;;;;;;7376629;19;20831;-76
2022/10/29 04:37:15;;;;;;;3.15;2.63;;;12.80;99.90;;;;;;7378740;19;20328;-76
2022/10/29 04:39:41;;;;;;;4.30;2.57;;;12.90;99.90;;;;;;7378465;19;20859;-76
2022/10/29 04:42:07;;;;;;;4.47;2.83;;;12.90;99.90;;;;;;7380718;19;20301;-76
2022/10/29 04:44:32;;;;;;;3.28;2.70;;;12.90;99.90;;;;;;7380494;19;20815;-76
2022/10/29 04:46:58;;;;;;;2.77;2.50;;;12.80;99.90;;;;;;7383863;19;20313;-76
2022/10/29 04:49:23;;;;;;;2.63;2.40;;;12.90;99.90;;;;;;7383655;19;20308;-76
2022/10/29 04:51:49;;;;;;;2.83;2.47;;;12.90;99.90;;;;;;7379523;19;20312;-76
2022/10/29 04:54:15;;;;;;;2.93;2.60;;;12.90;99.90;;;;;;7380793;19;20938;-76
2022/10/29 04:56:40;;;;;;;3.73;2.50;;;12.90;99.90;;;;;;7381077;19;20407;-75
2022/10/29 04:59:06;;;;;;;3.38;2.50;;;12.90;99.90;;;;;;7379795;19;20813;-76
2022/10/29 05:01:31;;;;;;;2.47;2.23;;;12.90;99.90;;;;;;7379801;19;20867;-79
2022/10/29 05:03:57;;;;;;;2.80;2.03;;;12.90;99.90;;;;;;7378811;19;20348;-75
2022/10/29 05:06:22;;;;;;;5.60;2.42;;;12.90;99.90;;;;;;7377995;19;20337;-75
2022/10/29 05:08:48;;;;;;;5.10;3.03;;;12.90;99.90;;;;;;7378867;19;20328;-76
2022/10/29 05:11:14;;;;;;;3.13;2.67;;;12.90;99.90;;;;;;7378072;19;21075;-78
2022/10/29 05:13:40;;;;;;;2.92;2.38;;;12.80;99.90;;;;;;7377659;19;20332;-76
2022/10/29 05:16:06;;;;;;;2.50;2.30;;;12.80;99.90;;;;;;7380265;19;20312;-75
2022/10/29 05:18:31;;;;;;;3.10;2.40;;;12.90;99.90;;;;;;7379881;19;20704;-75
2022/10/29 05:20:57;;;;;;;2.90;2.30;;;12.90;99.90;;;;;;7379081;19;20648;-75
2022/10/29 05:23:23;;;;;;;3.13;2.43;;;12.90;99.90;;;;;;7377863;19;20301;-75
2022/10/29 05:25:50;;;;;;;3.22;2.42;;;12.90;99.90;;;;;;7379193;19;20308;-79
2022/10/29 05:28:20;;;;;;;4.95;2.95;;;12.90;99.90;;;;;;7376496;19;20354;-76
2022/10/29 05:30:47;;;;;;;3.47;2.55;;;12.90;99.90;;;;;;7378430;19;20303;-75
2022/10/29 05:33:17;;;;;;;3.27;2.67;;;12.90;99.90;;;;;;7380276;19;20312;-77
2022/10/29 05:35:43;;;;;;;3.37;2.73;;;12.90;99.90;;;;;;7377930;19;20316;-76
2022/10/29 05:38:09;;;;;;;2.83;2.50;;;12.90;99.90;;;;;;7378714;19;21107;-76
2022/10/29 05:40:34;;;;;;;3.72;2.80;;;12.80;99.90;;;;;;7379015;19;20331;-76
2022/10/29 05:43:00;;;;;;;2.93;2.70;;;12.80;99.90;;;;;;7378404;19;20324;-75
2022/10/29 05:45:26;;;;;;;3.60;2.83;;;12.80;99.90;;;;;;7378041;19;20351;-75
2022/10/29 05:47:58;;;;;;;2.92;2.55;;;12.80;99.90;;;;;;7376069;19;20891;-76
2022/10/29 05:50:24;;;;;;;4.07;2.88;;;12.80;99.90;;;;;;7377776;19;20337;-76
2022/10/29 05:53:00;;;;;;;4.50;3.10;;;12.80;99.90;;;;;;7376497;19;20312;-76
2022/10/29 05:55:25;;;;;;;3.22;2.90;;;12.80;99.90;;;;;;7376365;19;20324;-75
2022/10/29 05:57:55;;;;;;;3.05;2.72;;;12.90;99.90;;;;;;7378187;19;20332;-75
2022/10/29 06:00:21;;;;;;;6.40;2.97;;;12.90;99.90;;;;;;7377670;19;20316;-75
2022/10/29 06:02:47;;;;;;;4.30;2.92;;;12.90;99.90;;;;;;7378046;19;20320;-76
2022/10/29 06:05:12;;;;;;;3.70;2.80;;;12.90;99.90;;;;;;7379728;19;20329;-76
2022/10/29 06:07:38;;;;;;;5.75;2.80;;;12.80;99.90;;;;;;7379358;19;20326;-75
2022/10/29 06:10:04;;;;;;;4.03;2.75;;;12.80;99.90;;;;;;7376788;19;20352;-76
2022/10/29 06:12:32;;;;;;;6.20;3.00;;;12.80;99.90;;;;;;7377279;19;20329;-76
2022/10/29 06:14:58;;;;;;;3.55;2.78;;;12.90;99.90;;;;;;7376662;19;20397;-78
2022/10/29 06:17:24;;;;;;;2.97;2.67;;;12.90;99.90;;;;;;7376367;19;20329;-75
2022/10/29 06:19:49;;;;;;;4.78;3.22;;;12.90;99.90;;;;;;7376191;19;20835;-77
2022/10/29 06:22:15;;;;;;;5.50;2.70;;;12.90;99.90;;;;;;7377418;19;20328;-75
2022/10/29 06:24:40;;;;;;;5.83;2.90;;;12.90;99.90;;;;;;7377699;19;20860;-76
2022/10/29 06:27:06;;;;;;;4.68;2.95;;;12.90;99.90;;;;;;7378193;19;20321;-76
2022/10/29 06:29:31;;;;;;;4.10;2.80;;;12.90;99.90;;;;;;7377049;19;20437;-76
2022/10/29 06:31:57;;;;;;;2.83;2.53;;;12.90;99.90;;;;;;7376139;19;21037;-75
2022/10/29 06:34:22;;;;;;;2.97;2.67;;;13.00;99.90;;;;;;7381565;19;20296;-77
2022/10/29 06:36:48;;;;;;;3.07;2.60;;;13.00;99.90;;;;;;7387077;19;20332;-75
2022/10/29 06:39:14;;;;;;;2.93;2.40;;;13.00;99.90;;;;;;7384943;19;21076;-76
2022/10/29 06:41:39;;;;;;;3.20;2.60;;;13.00;99.90;;;;;;7384446;19;20347;-77
2022/10/29 06:44:05;;;;;;;2.90;2.40;;;13.10;99.90;;;;;;7385412;19;20316;-75
2022/10/29 06:46:32;;;;;;;4.17;2.50;;;13.10;99.90;;;;;;7383706;19;20628;-76
2022/10/29 06:48:58;;;;;;;3.30;2.55;;;13.10;99.90;;;;;;7384816;19;20677;-75
2022/10/29 06:51:24;;;;;;;4.80;2.47;;;13.20;99.90;;;;;;7384161;19;20312;-76
2022/10/29 06:53:49;;;;;;;3.00;2.58;;;13.20;99.90;;;;;;7383660;19;20329;-78
2022/10/29 06:56:15;;;;;;;4.23;3.47;;;13.20;99.90;;;;;;7386062;19;20338;-76
2022/10/29 06:58:40;;;;;;;7.17;3.20;;;13.30;99.90;;;;;;7385557;19;20320;-77
2022/10/29 07:01:06;;;;;;;6.85;3.60;;;13.30;99.90;;;;;;7383772;19;20895;-76
2022/10/29 07:03:31;;;;;;;4.43;3.22;;;13.40;99.90;;;;;;7382122;19;20373;-75
2022/10/29 07:05:58;;;;;;;3.80;2.80;;;13.50;99.90;;;;;;7381446;19;20320;-75
2022/10/29 07:08:24;;;;;;;3.40;2.78;;;13.50;99.90;;;;;;7384888;19;20316;-76
2022/10/29 07:10:50;;;;;;;5.22;3.33;;;13.60;99.90;;;;;;7382670;19;20322;-76
2022/10/29 07:13:16;;;;;;;4.60;3.33;;;13.70;99.90;;;;;;7385847;19;20349;-76
2022/10/29 07:15:41;;;;;;;4.47;3.23;;;13.80;99.90;;;;;;7383815;19;20313;-75
2022/10/29 07:18:07;;;;;;;4.22;3.10;;;13.90;99.90;;;;;;7381794;19;20866;-76
2022/10/29 07:20:34;;;;;;;4.00;3.17;;;14.00;99.90;;;;;;7380649;19;20352;-75
2022/10/29 07:23:00;;;;;;;4.07;3.30;;;14.10;99.90;;;;;;7380179;19;20335;-76
2022/10/29 07:25:27;;;;;;;3.63;2.90;;;14.20;99.90;;;;;;7379649;19;20872;-76
2022/10/29 07:27:52;;;;;;;6.03;3.53;;;14.30;99.90;;;;;;7378794;19;20733;-75
2022/10/29 07:30:18;;;;;;;5.38;3.08;;;14.30;99.90;;;;;;7379368;19;20329;-76
2022/10/29 07:32:43;;;;;;;4.37;3.00;;;14.40;99.90;;;;;;7379868;19;21161;-75
2022/10/29 07:35:09;;;;;;;5.00;2.80;;;14.50;99.90;;;;;;7378462;19;20886;-77
2022/10/29 07:37:35;;;;;;;3.38;2.97;;;14.60;99.90;;;;;;7379095;19;20404;-75
2022/10/29 07:40:00;;;;;;;3.83;2.90;;;14.60;99.90;;;;;;7375311;19;21254;-75
2022/10/29 07:42:26;;;;;;;5.00;2.80;;;14.70;99.90;;;;;;7379378;19;20344;-76
2022/10/29 07:44:51;;;;;;;4.35;2.80;;;14.70;99.90;;;;;;7381209;19;20843;-78
2022/10/29 07:47:17;;;;;;;4.73;3.30;;;14.80;99.90;;;;;;7379018;19;20329;-75
2022/10/29 07:49:42;;;;;;;3.30;2.70;;;14.90;99.90;;;;;;7378023;19;20332;-75
2022/10/29 07:52:08;;;;;;;5.80;3.08;;;15.00;99.90;;;;;;7377338;19;20324;-74
2022/10/29 07:54:34;;;;;;;6.60;3.27;;;15.00;99.90;;;;;;7377404;19;20808;-75
2022/10/29 07:57:00;;;;;;;5.88;3.85;;;15.10;99.90;;;;;;7378214;19;20312;-79
2022/10/29 07:59:25;;;;;;;6.10;3.57;;;15.20;99.90;;;;;;7377015;19;20347;-75
2022/10/29 08:01:51;;;;;;;8.10;3.57;;;15.30;99.90;;;;;;7376081;19;20361;-74
2022/10/29 08:04:16;;;;;;;4.18;3.28;;;15.40;99.90;;;;;;7374998;19;20630;-75
2022/10/29 08:06:42;;;;;;;4.93;2.67;;;15.40;99.90;;;;;;7375484;19;20669;-74
2022/10/29 08:09:09;;;;;;;3.67;2.47;;;15.50;99.90;;;;;;7376755;19;20351;-75
2022/10/29 08:11:35;;;;;;;5.67;3.43;;;15.60;99.90;;;;;;7374733;19;20356;-75
2022/10/29 08:14:00;;;;;;;4.68;3.17;;;15.70;99.90;;;;;;7375793;19;20988;-75
2022/10/29 08:16:26;;;;;;;7.33;3.97;;;15.70;99.90;;;;;;7376892;19;20332;-76
2022/10/29 08:18:51;;;;;;;5.70;4.00;;;15.80;99.90;;;;;;7376066;19;20340;-75
2022/10/29 08:21:17;;;;;;;4.72;3.60;;;15.80;99.90;;;;;;7377013;19;20319;-76
2022/10/29 08:23:43;;;;;;;5.43;2.83;;;15.90;99.90;;;;;;7377638;19;20315;-79
2022/10/29 08:26:09;;;;;;;9.10;3.13;;;16.00;99.90;;;;;;7376553;19;20966;-78
2022/10/29 08:28:34;;;;;;;3.85;2.40;;;16.00;99.90;;;;;;7377994;19;20739;-79
2022/10/29 08:31:00;;;;;;;4.23;2.20;;;16.10;99.90;;;;;;7373184;19;20336;-78
2022/10/29 08:33:25;;;;;;;2.72;2.20;;;16.20;99.90;;;;;;7374983;19;20435;-78
2022/10/29 08:35:53;;;;;;;4.03;2.40;;;16.20;99.90;;;;;;7377168;19;20368;-78
2022/10/29 08:38:22;;;;;;;22.67;6.45;;;16.20;99.90;;;;;;7376861;19;20392;-78
2022/10/29 08:41:12;;;;;;;3.97;3.00;;;16.30;99.90;;;;;;7377302;19;20311;-78
2022/10/29 08:44:00;;;;;;;3.65;2.80;;;16.30;99.90;;;;;;7273832;19;2004490;-78
2022/10/29 08:47:03;;;;;;;5.03;2.60;;;16.40;99.90;;;;;;7272078;19;2004415;-78
2022/10/29 08:50:00;;;;;;;3.40;2.70;;;16.40;99.90;;;;;;7272489;19;2004852;-78
2022/10/29 08:52:27;;;;;;;4.95;2.92;;;16.50;99.90;;;;;;7271489;19;2019182;-79
2022/10/29 08:55:09;;;;;;;3.25;2.55;;;16.60;99.90;;;;;;7376471;19;20316;-77
2022/10/29 08:57:41;;;;;;;8.48;3.22;;;16.60;99.90;;;;;;7374364;19;20387;-79
2022/10/29 09:00:16;;;;;;;4.18;2.90;;;16.70;99.90;;;;;;7377525;19;20943;-79
2022/10/29 09:02:42;;;;;;;5.72;2.80;;;16.80;99.90;;;;;;7375727;19;20383;-78
2022/10/29 09:05:13;;;;;;;4.07;2.85;;;16.90;99.90;;;;;;7381813;19;20309;-80
2022/10/29 09:07:45;;;;;;;3.55;2.70;;;17.10;99.90;;;;;;7389967;19;20309;-81
2022/10/29 09:10:24;;;;;;;4.05;2.45;;;17.20;99.90;;;;;;7386291;19;20348;-80
2022/10/29 09:12:51;;;;;;;4.93;2.60;;;17.30;99.90;;;;;;7390012;19;20316;-82
2022/10/29 09:15:17;;;;;;;4.13;2.70;;;17.50;99.90;;;;;;7396638;19;20312;-81
2022/10/29 09:17:49;;;;;;;6.70;2.70;;;17.60;99.90;;;;;;7404019;19;20308;-80
2022/10/29 09:20:23;;;;;;;4.57;2.58;;;17.70;99.90;;;;;;7383864;19;21017;-81
2022/10/29 09:23:11;;;;;;;6.30;3.10;;;17.80;99.90;;;;;;7382243;19;20316;-79
2022/10/29 09:25:44;;;;;;;6.40;3.00;;;17.90;99.90;;;;;;7277547;19;2004442;-78
2022/10/29 09:28:32;;;;;;;2.67;2.40;;;17.90;99.90;;;;;;7375076;19;21779;-78
2022/10/29 09:31:16;;;;;;;6.53;2.90;;;18.00;99.90;;;;;;7277076;19;2004961;-78
2022/10/29 09:33:46;;;;;;;4.50;2.65;;;18.00;99.90;;;;;;7389030;19;20404;-80
2022/10/29 09:36:15;;;;;;;5.13;3.10;;;18.10;99.90;;;;;;7385955;19;20383;-79
2022/10/29 09:39:03;;;;;;;4.00;2.70;;;18.20;99.90;;;;;;7393191;19;20332;-78
2022/10/29 09:41:32;;;;;;;4.03;2.63;;;18.20;99.90;;;;;;7280517;19;2004505;-80
2022/10/29 09:44:01;;;;;;;5.97;3.00;;;18.30;99.90;;;;;;7381515;19;20374;-80
2022/10/29 09:46:59;;;;;;;4.80;2.73;;;18.30;99.90;;;;;;7367124;19;20352;-82
2022/10/29 09:49:44;;;;;;;3.50;2.80;;;18.40;99.90;;;;;;7287790;19;2004602;-83
2022/10/29 09:52:35;;;;;;;3.72;2.72;;;18.50;99.90;;;;;;7386029;19;20343;-81
2022/10/29 09:55:23;;;;;;;8.77;3.67;;;18.60;99.90;;;;;;7393689;19;20457;-84
2022/10/29 09:57:51;;;;;;;5.57;3.10;;;18.60;99.90;;;;;;7393106;19;20337;-79
2022/10/29 10:00:26;;;;;;;3.83;2.95;;;18.70;99.90;;;;;;7388153;19;20950;-81
2022/10/29 10:03:37;;;;;;;7.57;3.40;;;18.60;99.90;;;;;;7271910;19;2004359;-80
2022/10/29 10:06:07;;;;;;;6.83;3.30;;;18.60;99.90;;;;;;7300960;19;2004380;-83
2022/10/29 10:08:55;;;;;;;5.70;3.20;;;18.60;99.90;;;;;;7396662;19;20343;-82
2022/10/29 10:11:20;;;;;;;4.70;3.20;;;18.60;99.90;;;;;;7297478;19;2004932;-79
2022/10/29 10:13:54;;;;;;;7.85;3.35;;;18.70;99.90;;;;;;7387385;19;20404;-81
2022/10/29 10:16:25;;;;;;;4.00;3.00;;;18.80;99.90;;;;;;7389132;19;20323;-80
2022/10/29 10:18:50;;;;;;;7.67;3.57;;;18.90;99.90;;;;;;7285272;19;2008239;-78
2022/10/29 10:21:34;;;;;;;5.18;3.75;;;19.00;99.90;;;;;;7387289;19;20328;-79
2022/10/29 10:24:00;;;;;;;6.47;3.45;;;19.00;99.90;;;;;;7283650;19;2004500;-80
2022/10/29 10:26:34;;;;;;;5.50;3.27;;;19.10;99.90;;;;;;7382039;19;21033;-78
2022/10/29 10:29:21;;;;;;;6.60;4.18;;;19.10;99.90;;;;;;7384239;19;20368;-78
2022/10/29 10:31:48;;;;;;;5.72;3.60;;;19.20;99.90;;;;;;7381490;19;20328;-79
2022/10/29 10:34:19;;;;;;;5.03;3.55;;;19.30;99.90;;;;;;7384037;19;20388;-79
2022/10/29 10:36:55;;;;;;;7.82;3.42;;;19.30;99.90;;;;;;7390488;19;20328;-80
2022/10/29 10:39:35;;;;;;;8.50;3.55;;;19.40;99.90;;;;;;7382374;19;20978;-79
2022/10/29 10:42:05;;;;;;;8.52;3.90;;;19.50;99.90;;;;;;7287632;19;2004994;-85
2022/10/29 10:44:31;;;;;;;5.40;3.58;;;19.50;99.90;;;;;;7384465;19;20351;-81
2022/10/29 10:46:58;;;;;;;7.15;3.88;;;19.60;99.90;;;;;;7391820;19;20770;-85
2022/10/29 10:49:28;;;;;;;7.72;3.55;;;19.60;99.90;;;;;;7391642;19;20632;-80
2022/10/29 10:51:54;;;;;;;5.53;3.50;;;19.70;99.90;;;;;;7392065;19;20311;-83
2022/10/29 10:54:37;;;;;;;8.63;4.03;;;19.80;99.90;;;;;;7395731;19;20308;-80
2022/10/29 10:57:12;;;;;;;6.43;3.95;;;19.80;99.90;;;;;;7286875;19;2004468;-82
2022/10/29 11:00:15;;;;;;;5.65;3.40;;;19.70;99.90;;;;;;7387279;19;20313;-80
2022/10/29 11:02:47;;;;;;;4.78;3.22;;;19.80;99.90;;;;;;7283985;19;2004505;-81
2022/10/29 11:05:18;;;;;;;6.53;3.20;;;19.80;99.90;;;;;;7387826;19;20871;-80
2022/10/29 11:07:57;;;;;;;6.47;3.05;;;20.00;99.90;;;;;;7389480;19;20364;-87
2022/10/29 11:10:39;;;;;;;5.17;3.10;;;20.10;99.90;;;;;;7285880;19;2008651;-82
2022/10/29 11:13:08;;;;;;;6.55;3.22;;;20.20;99.90;;;;;;7388546;19;20849;-81
2022/10/29 11:15:57;;;;;;;10.23;2.80;;;20.20;99.90;;;;;;7393223;19;20347;-81
2022/10/29 11:18:23;;;;;;;4.35;3.03;;;20.40;99.90;;;;;;7288212;19;2004543;-81
2022/10/29 11:20:55;;;;;;;5.17;3.20;;;20.50;99.90;;;;;;7388217;19;20321;-79
2022/10/29 11:23:26;;;;;;;4.87;3.03;;;20.60;99.90;;;;;;7283394;19;2020220;-78
2022/10/29 11:26:13;;;;;;;4.97;3.00;;;20.70;99.90;;;;;;7386060;19;21140;-79
2022/10/29 11:28:44;;;;;;;4.93;2.88;;;20.70;99.90;;;;;;7389770;19;20348;-84
2022/10/29 11:31:34;;;;;;;5.28;3.00;;;20.70;99.90;;;;;;7393105;19;20345;-83
2022/10/29 11:34:16;;;;;;;5.68;3.17;;;20.90;99.90;;;;;;7290977;19;2004261;-84
2022/10/29 11:36:45;;;;;;;6.40;3.30;;;21.00;99.90;;;;;;7391850;19;20332;-77
2022/10/29 11:39:44;;;;;;;4.70;3.07;;;21.20;99.90;;;;;;7390630;19;20324;-78
2022/10/29 11:42:10;;;;;;;4.78;2.97;;;21.30;99.90;;;;;;7291127;19;2020092;-78
2022/10/29 11:44:37;;;;;;;5.70;3.20;;;21.30;99.90;;;;;;7395460;19;20324;-85
2022/10/29 11:47:08;;;;;;;6.80;3.28;;;21.20;99.90;;;;;;7397370;19;20328;-83
2022/10/29 11:49:52;;;;;;;5.93;3.25;;;21.30;99.90;;;;;;7395752;19;20340;-83
2022/10/29 11:52:43;;;;;;;5.95;2.90;;;21.50;99.90;;;;;;7390375;19;20316;-80
2022/10/29 11:55:36;;;;;;;5.97;3.30;;;21.30;99.90;;;;;;7290854;19;2019910;-79
2022/10/29 11:58:24;;;;;;;6.65;2.95;;;21.20;99.90;;;;;;7291983;19;2004182;-88
2022/10/29 12:00:52;;;;;;;4.57;3.03;;;21.20;99.90;;;;;;7392114;19;20882;-80
2022/10/29 12:03:45;;;;;;;5.27;2.70;;;21.10;99.90;;;;;;7392877;19;20323;-80
2022/10/29 12:06:11;;;;;;;6.78;3.60;;;21.10;99.90;;;;;;7283787;19;2004439;-80
2022/10/29 12:08:48;;;;;;;5.00;2.75;;;20.80;99.90;;;;;;7388335;19;20345;-83
2022/10/29 12:11:33;;;;;;;5.65;3.00;;;20.90;99.90;;;;;;7390184;19;20394;-83
2022/10/29 12:14:25;;;;;;;5.50;2.80;;;21.10;99.90;;;;;;7291080;19;2019995;-83
2022/10/29 12:17:14;;;;;;;4.85;2.83;;;21.40;99.90;;;;;;7292342;19;2004393;-80
2022/10/29 12:19:42;;;;;;;5.82;2.95;;;21.50;99.90;;;;;;7391660;19;20691;-83
2022/10/29 12:22:27;;;;;;;3.05;2.75;;;21.50;99.90;;;;;;7397961;19;20348;-84
2022/10/29 12:25:14;;;;;;;5.45;2.85;;;21.50;99.90;;;;;;7292429;19;2004520;-77
2022/10/29 12:28:01;;;;;;;4.72;2.75;;;21.30;99.90;;;;;;7396632;19;20340;-77
2022/10/29 12:30:27;;;;;;;7.38;3.03;;;21.20;99.90;;;;;;7285824;19;2004277;-79
2022/10/29 12:32:55;;;;;;;4.63;3.13;;;21.10;99.90;;;;;;7387790;19;20396;-82
2022/10/29 12:35:51;;;;;;;7.75;3.50;;;21.20;99.90;;;;;;7392120;19;20371;-80
2022/10/29 12:38:38;;;;;;;3.25;2.60;;;21.20;99.90;;;;;;7287574;19;2004404;-79
2022/10/29 12:41:24;;;;;;;4.90;2.92;;;21.40;99.90;;;;;;7290467;19;2010423;-79
2022/10/29 12:43:50;;;;;;;4.28;2.60;;;21.40;99.90;;;;;;7390823;19;20324;-79
2022/10/29 12:46:23;;;;;;;5.97;3.67;;;21.40;99.90;;;;;;7388531;19;20352;-78
2022/10/29 12:48:57;;;;;;;4.53;3.10;;;21.40;99.90;;;;;;7390971;19;20352;-81
2022/10/29 12:51:28;;;;;;;4.55;2.88;;;21.50;99.90;;;;;;7287220;19;2019121;-80
2022/10/29 12:54:05;;;;;;;4.53;2.65;;;21.50;99.90;;;;;;7389765;19;20316;-79
2022/10/29 12:56:31;;;;;;;6.80;2.95;;;21.60;99.90;;;;;;7380104;19;20428;-79
2022/10/29 12:58:58;;;;;;;6.07;3.30;;;21.60;99.90;;;;;;7385857;19;20900;-77
2022/10/29 13:01:27;;;;;;;9.00;3.47;;;21.50;99.90;;;;;;7386991;19;21326;-78